Terminal Aerodrome Forecast
Issued by NWS

Home | Current Version | Previous Version | Text Only | Print | Product List | Glossary On
Versions: 1 2 3 4 5 6 7 8 9 10 11 12 13 14 15 16 17 18 19 20
000
FTUS44 KSJT 301200 AAB
TAFBBD
TAF AMD
KBBD 301244Z 3013/0112 VRB04KT P6SM VCSH SCT015 OVC200
      TEMPO 3013/3015 BKN015
     FM301500 17007KT P6SM SCT100 BKN250
     FM301800 16008KT P6SM SCT040
     FM010100 15007KT P6SM SCT250=

USA.gov is the U.S. government's official web portal to all federal, state and local government web resources and services.